createdAt,value
2018-05-03T00:00:56.631Z,75.10
2018-05-03T00:03:25.079Z,75.60
2018-05-03T00:05:53.150Z,75.50
2018-05-03T00:08:20.829Z,75.90
2018-05-03T00:10:48.475Z,76.00
2018-05-03T00:13:16.175Z,76.00
2018-05-03T00:15:43.838Z,76.00
2018-05-03T00:18:11.487Z,76.00
2018-05-03T00:20:39.939Z,76.50
2018-05-03T00:23:07.603Z,76.50
2018-05-03T00:25:35.296Z,76.50
2018-05-03T00:28:02.942Z,76.60
2018-05-03T00:30:30.639Z,76.70
2018-05-03T00:32:58.279Z,76.80
2018-05-03T00:35:25.972Z,77.10
2018-05-03T00:37:54.783Z,77.60
2018-05-03T00:40:23.440Z,77.60
2018-05-03T00:42:52.604Z,77.60
2018-05-03T00:45:20.290Z,77.60
2018-05-03T00:47:47.940Z,77.80
2018-05-03T00:50:16.435Z,77.70
2018-05-03T00:52:44.084Z,77.70
2018-05-03T00:55:11.738Z,78.50
2018-05-03T00:57:39.424Z,78.00
2018-05-03T01:00:07.886Z,78.30
2018-05-03T01:02:35.574Z,78.30
2018-05-03T01:05:04.022Z,78.00
2018-05-03T01:07:31.681Z,78.00
2018-05-03T01:09:59.374Z,78.10
2018-05-03T01:12:27.800Z,77.90
2018-05-03T01:14:55.971Z,77.90
2018-05-03T01:17:24.180Z,77.60
2018-05-03T01:19:52.871Z,77.80
2018-05-03T01:22:20.532Z,77.80
2018-05-03T01:24:48.221Z,78.20
2018-05-03T01:27:16.677Z,78.30
2018-05-03T01:29:44.336Z,78.30
2018-05-03T01:32:12.025Z,79.30
2018-05-03T01:34:56.086Z,79.00
2018-05-03T01:37:24.127Z,79.00
2018-05-03T01:39:52.560Z,78.70
2018-05-03T01:42:20.254Z,78.70
2018-05-03T01:44:47.946Z,78.70
2018-05-03T01:47:16.399Z,78.60
2018-05-03T01:49:44.073Z,78.60
2018-05-03T01:52:11.765Z,78.90
2018-05-03T01:54:39.420Z,78.90
2018-05-03T01:57:07.190Z,78.70
2018-05-03T01:59:34.818Z,78.80
2018-05-03T02:02:03.294Z,79.20
2018-05-03T02:04:30.945Z,78.60
2018-05-03T02:06:58.597Z,78.50
2018-05-03T02:09:26.283Z,78.30
2018-05-03T02:11:54.708Z,79.50
2018-05-03T02:14:22.419Z,78.70
2018-05-03T02:16:50.094Z,78.90
2018-05-03T02:19:18.556Z,79.50
2018-05-03T02:21:46.212Z,79.50
2018-05-03T02:24:13.932Z,79.50
2018-05-03T02:26:41.596Z,79.60
2018-05-03T02:29:09.254Z,79.80
2018-05-03T02:31:36.957Z,79.90
2018-05-03T02:34:04.615Z,80.20
2018-05-03T02:36:32.270Z,80.40
2018-05-03T02:38:59.954Z,80.80
2018-05-03T02:41:27.628Z,81.50
2018-05-03T02:43:55.308Z,81.00
2018-05-03T02:46:23.716Z,81.20
2018-05-03T02:48:51.436Z,81.20
2018-05-03T02:51:19.860Z,80.80
2018-05-03T02:53:47.543Z,81.30
2018-05-03T02:56:15.191Z,81.20
2018-05-03T02:58:54.745Z,80.90
2018-05-03T03:01:39.979Z,80.80
2018-05-03T03:04:25.504Z,80.70
2018-05-03T03:10:34.038Z,80.40
2018-05-03T03:13:41.295Z,80.40
2018-05-03T03:16:26.479Z,80.30
2018-05-03T03:22:25.160Z,79.80
2018-05-03T03:25:05.969Z,80.00
2018-05-03T03:27:51.335Z,80.00
2018-05-03T03:30:36.831Z,80.10
2018-05-03T03:33:16.468Z,79.80
2018-05-03T03:36:04.851Z,80.30
2018-05-03T03:38:44.420Z,79.40
2018-05-03T03:41:24.703Z,79.40
2018-05-03T03:44:04.151Z,79.40
2018-05-03T03:46:31.799Z,79.40
2018-05-03T03:48:59.483Z,79.60
2018-05-03T03:51:27.174Z,79.60
2018-05-03T03:53:54.831Z,79.40
2018-05-03T03:56:22.552Z,79.50
2018-05-03T03:58:50.237Z,79.50
2018-05-03T04:01:17.929Z,79.50
2018-05-03T04:03:46.353Z,80.50
2018-05-03T04:06:14.051Z,80.50
2018-05-03T04:08:41.707Z,80.40
2018-05-03T04:11:09.391Z,80.50
2018-05-03T04:13:37.043Z,80.70
2018-05-03T04:16:04.732Z,80.70
2018-05-03T04:18:45.027Z,81.10
2018-05-03T04:21:24.595Z,81.00
2018-05-03T04:24:13.790Z,81.70
2018-05-03T04:26:41.518Z,81.10
2018-05-03T04:29:09.203Z,81.40
2018-05-03T04:31:36.881Z,81.60
2018-05-03T04:34:05.348Z,81.40
2018-05-03T04:36:32.999Z,81.40
2018-05-03T04:39:00.652Z,82.30
2018-05-03T04:41:28.338Z,81.40
2018-05-03T04:43:56.747Z,81.50
2018-05-03T04:46:24.431Z,81.10
2018-05-03T04:48:52.114Z,81.50
2018-05-03T04:51:19.799Z,81.90
2018-05-03T04:53:47.488Z,81.60
2018-05-03T04:56:15.170Z,81.70
2018-05-03T04:58:42.867Z,81.80
2018-05-03T05:01:10.614Z,82.20
2018-05-03T05:03:38.294Z,82.00
2018-05-03T05:06:05.986Z,81.60
2018-05-03T05:08:34.401Z,82.40
2018-05-03T05:11:02.115Z,82.40
2018-05-03T05:13:30.576Z,81.70
2018-05-03T05:15:58.224Z,81.60
2018-05-03T05:18:25.898Z,81.20
2018-05-03T05:20:53.583Z,81.20
2018-05-03T05:23:22.064Z,81.10
2018-05-03T05:25:50.492Z,80.90
2018-05-03T05:28:18.189Z,80.80
2018-05-03T05:30:45.958Z,80.50
2018-05-03T05:33:13.575Z,80.10
2018-05-03T05:35:41.238Z,80.10
2018-05-03T05:38:08.923Z,79.70
2018-05-03T05:40:36.611Z,79.60
2018-05-03T05:43:05.035Z,79.50
2018-05-03T05:45:32.716Z,79.40
2018-05-03T05:48:00.372Z,79.00
2018-05-03T05:50:28.076Z,78.80
2018-05-03T05:52:56.512Z,79.00
2018-05-03T05:55:24.206Z,78.90
2018-05-03T05:57:51.873Z,78.40
2018-05-03T06:00:19.536Z,78.30
2018-05-03T06:02:47.239Z,78.40
2018-05-03T06:05:14.907Z,77.70
2018-05-03T06:07:42.595Z,77.40
2018-05-03T06:10:10.255Z,76.20
2018-05-03T06:12:38.055Z,76.20
2018-05-03T06:15:05.707Z,75.90
2018-05-03T06:17:33.355Z,75.00
2018-05-03T06:20:01.034Z,75.20
2018-05-03T06:22:28.694Z,74.00
2018-05-03T06:24:56.385Z,74.00
2018-05-03T06:27:24.805Z,73.80
2018-05-03T06:29:52.535Z,73.80
2018-05-03T06:32:20.302Z,73.60
2018-05-03T06:34:48.000Z,73.90
2018-05-03T06:37:15.663Z,73.10
2018-05-03T06:39:43.339Z,72.30
2018-05-03T06:42:11.027Z,72.20
2018-05-03T06:44:39.443Z,70.50
2018-05-03T06:47:07.128Z,70.50
2018-05-03T06:49:34.822Z,70.50
2018-05-03T06:52:02.493Z,70.80
2018-05-03T06:54:31.034Z,69.20
2018-05-03T06:56:59.458Z,69.10
2018-05-03T06:59:27.922Z,68.80
2018-05-03T07:01:55.587Z,68.80
2018-05-03T07:04:23.427Z,69.00
2018-05-03T07:06:51.014Z,68.90
2018-05-03T07:09:19.480Z,68.30
2018-05-03T07:11:47.161Z,68.30
2018-05-03T07:14:15.619Z,68.90
2018-05-03T07:16:43.354Z,68.90
2018-05-03T07:19:11.019Z,68.70
2018-05-03T07:21:38.727Z,67.80
2018-05-03T07:24:07.156Z,67.60
2018-05-03T07:26:34.843Z,67.50
2018-05-03T07:29:02.505Z,66.30
2018-05-03T07:31:30.196Z,66.90
2018-05-03T07:33:58.735Z,66.20
2018-05-03T07:36:26.388Z,66.20
2018-05-03T07:38:54.112Z,65.30
2018-05-03T07:41:22.568Z,65.90
2018-05-03T07:43:50.259Z,65.90
2018-05-03T07:46:18.673Z,63.70
2018-05-03T07:48:46.405Z,63.70
2018-05-03T07:51:14.870Z,62.60
2018-05-03T07:53:43.803Z,62.90
2018-05-03T07:56:12.128Z,62.90
2018-05-03T07:58:39.836Z,62.50
2018-05-03T08:01:07.575Z,62.20
2018-05-03T08:03:36.000Z,63.20
2018-05-03T08:06:05.267Z,63.20
2018-05-03T08:08:32.936Z,63.60
2018-05-03T08:11:00.648Z,62.10
2018-05-03T08:13:29.158Z,62.10
2018-05-03T08:15:56.860Z,61.30
2018-05-03T08:18:24.572Z,59.90
2018-05-03T08:20:53.660Z,60.60
2018-05-03T08:23:23.067Z,60.40
2018-05-03T08:25:52.124Z,60.60
2018-05-03T08:28:20.261Z,60.30
2018-05-03T08:30:47.963Z,59.80
2018-05-03T08:33:15.648Z,59.10
2018-05-03T08:35:44.085Z,59.90
2018-05-03T08:38:11.819Z,59.60
2018-05-03T08:40:39.500Z,60.80
2018-05-03T08:43:07.203Z,58.30
2018-05-03T08:45:34.979Z,57.90
2018-05-03T08:48:02.723Z,56.10
2018-05-03T08:53:04.047Z,53.90
2018-05-03T08:55:31.743Z,53.80
2018-05-03T08:57:59.667Z,53.20
2018-05-03T09:00:28.406Z,51.40
2018-05-03T09:02:58.054Z,50.50
2018-05-03T09:05:26.603Z,46.70
2018-05-03T09:07:54.415Z,46.70
2018-05-03T09:10:23.985Z,45.10
2018-05-03T09:13:01.128Z,45.10
2018-05-03T09:15:35.723Z,44.10
2018-05-03T09:18:03.899Z,45.00
2018-05-03T09:20:45.995Z,45.20
2018-05-03T09:23:15.546Z,44.60
2018-05-03T09:25:43.420Z,46.00
2018-05-03T09:28:11.674Z,47.10
2018-05-03T09:30:40.461Z,46.90
2018-05-03T09:33:15.462Z,46.90
2018-05-03T09:35:50.871Z,47.40
2018-05-03T09:38:24.337Z,48.30
2018-05-03T09:41:01.661Z,48.20
2018-05-03T09:43:30.742Z,48.70
2018-05-03T09:45:59.245Z,48.70
2018-05-03T09:48:27.610Z,49.90
2018-05-03T09:51:07.707Z,49.80
2018-05-03T09:53:36.576Z,50.80
2018-05-03T09:56:04.343Z,50.80
2018-05-03T09:58:32.783Z,50.20
2018-05-03T10:01:00.485Z,50.20
2018-05-03T10:03:36.090Z,49.40
2018-05-03T10:06:10.686Z,49.40
2018-05-03T10:08:42.852Z,49.70
2018-05-03T10:11:11.052Z,50.60
2018-05-03T10:13:38.742Z,49.80
2018-05-03T10:16:06.485Z,50.30
2018-05-03T10:18:34.214Z,50.20
2018-05-03T10:21:01.907Z,49.40
2018-05-03T10:23:29.852Z,50.20
2018-05-03T10:25:57.530Z,51.20
2018-05-03T10:28:25.224Z,49.40
2018-05-03T10:30:52.899Z,49.90
2018-05-03T10:33:21.377Z,50.40
2018-05-03T10:35:49.068Z,50.40
2018-05-03T10:38:16.807Z,51.20
2018-05-03T10:40:45.301Z,50.40
2018-05-03T10:43:13.771Z,49.30
2018-05-03T10:45:43.774Z,47.80
2018-05-03T10:48:23.023Z,47.80
2018-05-03T10:50:51.380Z,47.30
2018-05-03T10:53:19.537Z,47.70
2018-05-03T10:55:47.229Z,47.90
2018-05-03T10:58:15.214Z,47.40
2018-05-03T11:00:43.666Z,46.20
2018-05-03T11:03:17.402Z,46.20
2018-05-03T11:05:45.340Z,46.80
2018-05-03T11:08:13.706Z,47.00
2018-05-03T11:10:45.446Z,48.50
2018-05-03T11:13:13.435Z,47.90
2018-05-03T11:15:41.188Z,46.70
2018-05-03T11:18:09.163Z,46.60
2018-05-03T11:20:37.379Z,47.30
2018-05-03T11:23:05.183Z,45.60
2018-05-03T11:25:32.908Z,46.10
2018-05-03T11:28:01.456Z,46.10
2018-05-03T11:30:31.399Z,46.10
2018-05-03T11:32:59.617Z,46.60
2018-05-03T11:35:32.741Z,46.20
2018-05-03T11:38:00.787Z,45.70
2018-05-03T11:40:30.318Z,46.20
2018-05-03T11:42:58.128Z,46.30
2018-05-03T11:45:26.915Z,46.30
2018-05-03T11:48:01.998Z,45.50
2018-05-03T11:50:36.273Z,45.00
2018-05-03T11:53:12.614Z,45.00
2018-05-03T11:55:41.316Z,45.70
2018-05-03T11:58:13.283Z,45.50
2018-05-03T12:00:41.012Z,44.40
2018-05-03T12:03:10.134Z,44.50
2018-05-03T12:05:37.807Z,44.30
2018-05-03T12:08:05.685Z,44.80
2018-05-03T12:10:33.487Z,44.90
2018-05-03T12:13:05.033Z,45.40
2018-05-03T12:15:32.931Z,44.90
2018-05-03T12:18:01.992Z,44.60
2018-05-03T12:20:30.544Z,44.60
2018-05-03T12:22:58.330Z,45.00
2018-05-03T12:25:31.626Z,45.10
2018-05-03T12:27:59.400Z,45.00
2018-05-03T12:30:34.642Z,43.90
2018-05-03T12:33:02.795Z,43.90
2018-05-03T12:35:37.108Z,44.10
2018-05-03T12:38:09.539Z,46.00
2018-05-03T12:40:38.006Z,46.30
2018-05-03T12:43:06.655Z,45.90
2018-05-03T12:45:37.313Z,45.90
2018-05-03T12:48:08.453Z,47.20
2018-05-03T12:50:38.861Z,47.20
2018-05-03T12:53:09.157Z,45.70
2018-05-03T12:55:42.046Z,43.80
2018-05-03T12:58:10.083Z,43.80
2018-05-03T13:00:47.331Z,44.20
2018-05-03T13:03:18.071Z,44.70
2018-05-03T13:05:46.810Z,43.60
2018-05-03T13:08:18.879Z,43.70
2018-05-03T13:10:47.613Z,43.40
2018-05-03T13:13:27.292Z,43.40
2018-05-03T13:15:55.497Z,42.70
2018-05-03T13:18:23.575Z,43.80
2018-05-03T13:20:51.528Z,43.80
2018-05-03T13:23:28.849Z,43.10
2018-05-03T13:39:31.605Z,44.90
2018-05-03T13:41:59.440Z,44.10
2018-05-03T13:44:32.633Z,44.40
2018-05-03T13:47:00.839Z,44.70
2018-05-03T13:49:28.778Z,43.60
2018-05-03T13:51:57.321Z,44.10
2018-05-03T13:54:25.001Z,44.10
2018-05-03T13:56:53.508Z,42.80
2018-05-03T13:59:24.427Z,42.80
2018-05-03T14:01:53.603Z,44.20
2018-05-03T14:04:28.457Z,43.50
2018-05-03T14:07:00.510Z,43.50
2018-05-03T14:09:36.117Z,44.40
2018-05-03T14:12:07.618Z,45.10
2018-05-03T14:14:40.337Z,44.50
2018-05-03T14:17:10.805Z,44.40
2018-05-03T14:19:48.337Z,45.10
2018-05-03T14:22:17.217Z,45.00
2018-05-03T14:24:48.359Z,44.30
2018-05-03T14:27:25.461Z,42.90
2018-05-03T14:29:54.480Z,43.50
2018-05-03T14:32:23.163Z,42.80
2018-05-03T14:35:01.471Z,43.40
2018-05-03T14:37:37.831Z,44.10
2018-05-03T14:40:06.829Z,43.80
2018-05-03T14:42:34.633Z,43.40
2018-05-03T14:45:03.081Z,44.30
2018-05-03T14:47:30.873Z,44.30
2018-05-03T14:50:07.438Z,44.20
2018-05-03T14:52:35.507Z,44.20
2018-05-03T14:55:04.487Z,44.30
2018-05-03T14:57:33.200Z,44.80
2018-05-03T15:00:01.939Z,44.00
2018-05-03T15:02:32.265Z,43.70
2018-05-03T15:05:07.905Z,43.10
2018-05-03T15:07:46.514Z,45.30
2018-05-03T15:10:15.384Z,43.70
2018-05-03T15:12:43.185Z,42.90
2018-05-03T15:15:10.895Z,43.40
2018-05-03T15:17:39.356Z,43.50
2018-05-03T15:20:07.048Z,43.50
2018-05-03T15:22:35.512Z,43.60
2018-05-03T15:25:04.000Z,42.80
2018-05-03T15:27:31.669Z,42.80
2018-05-03T15:30:00.167Z,43.10
2018-05-03T15:32:27.870Z,43.10
2018-05-03T15:34:55.994Z,43.80
2018-05-03T15:37:23.796Z,43.00
2018-05-03T15:39:51.523Z,42.40
2018-05-03T15:42:19.257Z,42.50
2018-05-03T15:44:47.781Z,43.20
2018-05-03T15:47:15.532Z,43.20
2018-05-03T15:49:47.702Z,42.30
2018-05-03T15:52:22.683Z,42.60
2018-05-03T15:55:01.468Z,42.50
2018-05-03T15:57:35.424Z,42.90
2018-05-03T16:00:03.116Z,42.60
2018-05-03T16:02:31.650Z,43.00
2018-05-03T16:04:59.407Z,43.00
2018-05-03T16:07:28.345Z,43.30
2018-05-03T16:09:58.650Z,43.30
2018-05-03T16:12:26.345Z,43.20
2018-05-03T16:15:06.258Z,42.80
2018-05-03T16:17:42.224Z,42.70
2018-05-03T16:20:11.724Z,42.00
2018-05-03T16:22:47.031Z,42.10
2018-05-03T16:28:10.313Z,42.70
2018-05-03T16:30:38.847Z,41.90
2018-05-03T16:33:12.724Z,41.80
2018-05-03T16:35:47.037Z,41.50
2018-05-03T16:38:15.859Z,41.50
2018-05-03T16:40:55.484Z,41.40
2018-05-03T16:43:27.307Z,41.30
2018-05-03T16:45:57.732Z,41.00
2018-05-03T16:48:26.292Z,40.70
2018-05-03T16:50:57.199Z,40.30
2018-05-03T16:53:31.755Z,39.70
2018-05-03T16:56:09.455Z,40.20
2018-05-03T16:58:38.773Z,39.70
2018-05-03T17:01:06.704Z,39.10
2018-05-03T17:03:36.999Z,38.40
2018-05-03T17:06:06.338Z,38.60
2018-05-03T17:08:34.182Z,38.70
2018-05-03T17:11:08.406Z,39.50
2018-05-03T17:13:46.704Z,39.50
2018-05-03T17:16:14.797Z,39.00
2018-05-03T17:18:47.273Z,39.10
2018-05-03T17:21:16.052Z,39.10
2018-05-03T17:23:49.035Z,39.20
2018-05-03T17:26:17.601Z,39.30
2018-05-03T17:28:45.432Z,38.60
2018-05-03T17:31:20.485Z,39.20
2018-05-03T17:33:57.250Z,38.90
2018-05-03T17:36:24.970Z,39.10
2018-05-03T17:38:52.753Z,39.00
2018-05-03T17:41:22.181Z,40.00
2018-05-03T17:43:50.035Z,40.60
2018-05-03T17:46:17.784Z,40.20
2018-05-03T17:48:45.506Z,39.60
2018-05-03T17:51:14.087Z,41.80
2018-05-03T17:53:41.778Z,41.60
2018-05-03T17:56:09.566Z,40.90
2018-05-03T17:58:37.224Z,41.10
2018-05-03T18:01:04.951Z,41.20
2018-05-03T18:03:32.615Z,41.30
2018-05-03T18:06:00.372Z,39.80
2018-05-03T18:08:28.802Z,40.00
2018-05-03T18:10:56.502Z,39.90
2018-05-03T18:13:25.071Z,40.10
2018-05-03T18:15:52.776Z,40.10
2018-05-03T18:18:20.448Z,39.30
2018-05-03T18:20:48.383Z,39.50
2018-05-03T18:23:16.807Z,39.90
2018-05-03T18:25:44.520Z,39.90
2018-05-03T18:28:12.222Z,40.30
2018-05-03T18:30:39.898Z,39.30
2018-05-03T18:33:07.587Z,39.20
2018-05-03T18:35:35.920Z,39.70
2018-05-03T18:38:03.644Z,39.30
2018-05-03T18:40:31.327Z,39.20
2018-05-03T18:42:59.768Z,38.70
2018-05-03T18:45:28.051Z,38.60
2018-05-03T18:47:55.808Z,39.20
2018-05-03T18:50:23.587Z,38.50
2018-05-03T18:52:51.275Z,39.40
2018-05-03T18:55:19.697Z,38.40
2018-05-03T18:57:47.384Z,38.30
2018-05-03T19:00:15.104Z,38.90
2018-05-03T19:02:42.850Z,39.80
2018-05-03T19:05:10.508Z,39.60
2018-05-03T19:07:38.995Z,39.60
2018-05-03T19:10:07.444Z,39.50
2018-05-03T19:12:35.145Z,39.10
2018-05-03T19:15:02.812Z,40.10
2018-05-03T19:17:30.507Z,38.80
2018-05-03T19:19:58.157Z,38.40
2018-05-03T19:22:25.864Z,38.70
2018-05-03T19:24:54.335Z,38.70
2018-05-03T19:27:21.989Z,38.60
2018-05-03T19:29:49.648Z,38.80
2018-05-03T19:32:17.332Z,39.30
2018-05-03T19:34:45.751Z,39.10
2018-05-03T19:37:13.453Z,39.10
2018-05-03T19:39:41.119Z,39.60
2018-05-03T19:42:08.809Z,39.90
2018-05-03T19:44:37.229Z,39.40
2018-05-03T19:47:05.037Z,39.40
2018-05-03T19:49:33.535Z,39.90
2018-05-03T19:52:02.324Z,39.90
2018-05-03T19:54:30.006Z,40.00
2018-05-03T19:56:57.825Z,40.50
2018-05-03T19:59:25.528Z,40.60
2018-05-03T20:01:53.274Z,40.90
2018-05-03T20:04:21.788Z,40.70
2018-05-03T20:06:49.466Z,40.60
2018-05-03T20:09:18.068Z,40.40
2018-05-03T20:11:45.729Z,40.40
2018-05-03T20:14:13.430Z,41.20
2018-05-03T20:16:42.736Z,41.20
2018-05-03T20:19:10.412Z,41.10
2018-05-03T20:21:38.119Z,41.10
2018-05-03T20:24:07.495Z,41.10
2018-05-03T20:26:35.295Z,41.10
2018-05-03T20:29:02.948Z,41.00
2018-05-03T20:31:30.633Z,41.70
2018-05-03T20:33:59.058Z,42.20
2018-05-03T20:36:26.763Z,42.20
2018-05-03T20:38:55.393Z,42.70
2018-05-03T20:41:23.779Z,42.80
2018-05-03T20:43:51.440Z,42.60
2018-05-03T20:46:19.151Z,42.70
2018-05-03T20:48:47.567Z,43.00
2018-05-03T20:51:15.265Z,43.00
2018-05-03T20:53:43.749Z,43.10
2018-05-03T20:56:11.448Z,42.80
2018-05-03T20:58:39.862Z,43.60
2018-05-03T21:01:07.556Z,43.60
2018-05-03T21:03:35.225Z,43.90
2018-05-03T21:06:02.920Z,44.30
2018-05-03T21:08:30.583Z,44.20
2018-05-03T21:10:59.003Z,44.70
2018-05-03T21:13:26.698Z,44.70
2018-05-03T21:15:54.371Z,44.80
2018-05-03T21:18:22.839Z,45.40
2018-05-03T21:20:51.114Z,45.40
2018-05-03T21:23:19.088Z,45.80
2018-05-03T21:25:48.475Z,45.80
2018-05-03T21:28:16.365Z,46.20
2018-05-03T21:30:46.778Z,46.90
2018-05-03T21:33:14.650Z,46.40
2018-05-03T21:35:42.435Z,46.80
2018-05-03T21:38:10.862Z,47.20
2018-05-03T21:40:38.520Z,47.20
2018-05-03T21:43:06.206Z,47.30
2018-05-03T21:45:38.123Z,47.70
2018-05-03T21:48:05.832Z,48.00
2018-05-03T21:50:34.069Z,48.00
2018-05-03T21:53:03.346Z,48.80
2018-05-03T21:55:31.084Z,48.60
2018-05-03T21:57:59.507Z,49.60
2018-05-03T22:00:27.163Z,49.50
2018-05-03T22:02:55.176Z,50.40
2018-05-03T22:05:22.919Z,50.40
2018-05-03T22:07:50.570Z,51.10
2018-05-03T22:10:18.263Z,51.60
2018-05-03T22:12:46.472Z,52.20
2018-05-03T22:15:14.942Z,52.90
2018-05-03T22:17:43.408Z,53.50
2018-05-03T22:20:11.100Z,53.40
2018-05-03T22:22:39.761Z,54.30
2018-05-03T22:25:07.463Z,54.20
2018-05-03T22:27:35.120Z,55.20
2018-05-03T22:30:02.795Z,55.80
2018-05-03T22:32:30.484Z,56.50
2018-05-03T22:34:58.210Z,56.90
2018-05-03T22:37:26.295Z,57.20
2018-05-03T22:39:54.963Z,58.00
2018-05-03T22:42:22.648Z,58.00
2018-05-03T22:44:50.304Z,58.10
2018-05-03T22:47:17.996Z,58.00
2018-05-03T22:49:45.756Z,57.90
2018-05-03T22:52:13.422Z,58.00
2018-05-03T22:54:41.278Z,58.70
2018-05-03T22:57:09.003Z,59.10
2018-05-03T22:59:36.682Z,59.20
2018-05-03T23:02:04.346Z,59.50
2018-05-03T23:04:32.048Z,59.40
2018-05-03T23:06:59.709Z,59.40
2018-05-03T23:09:27.393Z,59.70
2018-05-03T23:11:55.837Z,60.00
2018-05-03T23:14:23.490Z,60.00
2018-05-03T23:16:51.193Z,60.20
2018-05-03T23:19:19.647Z,61.30
2018-05-03T23:21:47.336Z,61.30
2018-05-03T23:24:15.744Z,62.00
2018-05-03T23:26:43.475Z,61.90
2018-05-03T23:29:11.880Z,63.30
2018-05-03T23:31:39.562Z,62.80
2018-05-03T23:34:07.216Z,62.80
2018-05-03T23:36:34.902Z,62.70
2018-05-03T23:39:02.548Z,63.30
2018-05-03T23:41:30.227Z,63.50
2018-05-03T23:43:57.881Z,63.60
2018-05-03T23:46:25.571Z,63.80
2018-05-03T23:48:53.253Z,64.00
2018-05-03T23:51:21.674Z,65.00
2018-05-03T23:53:49.363Z,65.00
2018-05-03T23:56:17.014Z,65.40
2018-05-03T23:58:44.697Z,65.80
